createdAt,value
2023-05-07T00:04:20.696Z,100308.91
2023-05-07T00:09:21.988Z,100305.00
2023-05-07T00:14:23.277Z,100298.03
2023-05-07T00:19:24.485Z,100298.81
2023-05-07T00:24:25.628Z,100289.47
2023-05-07T00:29:26.827Z,100286.81
2023-05-07T00:34:27.998Z,100237.44
2023-05-07T00:39:29.226Z,100281.09
2023-05-07T00:44:30.666Z,100288.09
2023-05-07T00:49:31.873Z,100290.44
2023-05-07T00:54:33.015Z,100273.94
2023-05-07T00:59:34.334Z,100273.16
2023-05-07T01:04:36.151Z,100265.56
2023-05-07T01:09:37.741Z,100267.13
2023-05-07T01:14:38.896Z,100264.78
2023-05-07T01:19:40.129Z,100255.78
2023-05-07T01:24:41.288Z,100255.78
2023-05-07T01:29:42.433Z,100252.66
2023-05-07T01:34:43.598Z,100250.16
2023-05-07T01:39:44.738Z,100256.56
2023-05-07T01:44:45.897Z,100253.44
2023-05-07T01:49:47.094Z,100252.34
2023-05-07T01:54:48.227Z,100254.22
2023-05-07T01:59:50.448Z,100248.47
2023-05-07T02:04:51.622Z,100246.16
2023-05-07T02:09:53.315Z,100257.03
2023-05-07T02:14:54.513Z,100250.78
2023-05-07T02:19:55.724Z,100259.03
2023-05-07T02:24:56.877Z,100257.50
2023-05-07T02:29:58.122Z,100251.91
2023-05-07T02:34:59.335Z,100255.47
2023-05-07T02:40:00.516Z,100253.28
2023-05-07T02:45:01.684Z,100253.22
2023-05-07T02:50:02.929Z,100264.19
2023-05-07T02:55:04.098Z,100268.69
2023-05-07T03:00:05.397Z,100264.91
2023-05-07T03:05:06.560Z,100267.41
2023-05-07T03:10:07.840Z,100270.50
2023-05-07T03:15:09.088Z,100257.91
2023-05-07T03:20:11.262Z,100253.34
2023-05-07T03:25:12.759Z,100259.84
2023-05-07T03:30:13.980Z,100248.34
2023-05-07T03:35:15.228Z,100249.44
2023-05-07T03:40:16.598Z,100250.69
2023-05-07T03:45:17.817Z,100248.34
2023-05-07T03:50:19.001Z,100250.81
2023-05-07T03:55:20.312Z,100255.63
2023-05-07T04:00:22.003Z,100258.56
2023-05-07T04:05:23.240Z,100257.03
2023-05-07T04:10:24.425Z,100268.75
2023-05-07T04:15:25.850Z,100276.19
2023-05-07T04:20:27.093Z,100276.84
2023-05-07T04:25:28.588Z,100273.31
2023-05-07T04:30:29.786Z,100280.66
2023-05-07T04:35:31.003Z,100278.81
2023-05-07T04:40:32.251Z,100272.06
2023-05-07T04:45:33.454Z,100270.69
2023-05-07T04:50:34.756Z,100271.50
2023-05-07T04:55:35.994Z,100265.34
2023-05-07T05:00:37.164Z,100267.53
2023-05-07T05:05:38.392Z,100276.22
2023-05-07T05:10:39.748Z,100276.72
2023-05-07T05:15:41.003Z,100280.28
2023-05-07T05:20:42.169Z,100277.34
2023-05-07T05:25:43.405Z,100278.28
2023-05-07T05:30:44.636Z,100271.13
2023-05-07T05:35:45.926Z,100276.47
2023-05-07T05:40:47.062Z,100282.19
2023-05-07T05:45:48.283Z,100285.91
2023-05-07T05:50:49.430Z,100282.16
2023-05-07T05:55:51.801Z,100286.31
2023-05-07T06:00:54.232Z,100287.25
2023-05-07T06:05:55.503Z,100292.19
2023-05-07T06:10:56.796Z,100290.59
2023-05-07T06:15:57.935Z,100286.34
2023-05-07T06:20:59.122Z,100292.22
2023-05-07T06:26:00.400Z,100298.66
2023-05-07T06:31:01.838Z,100305.25
2023-05-07T06:36:03.010Z,100295.31
2023-05-07T06:41:04.203Z,100299.47
2023-05-07T06:46:06.040Z,100304.00
2023-05-07T06:51:07.266Z,100312.84
2023-05-07T06:56:08.541Z,100310.28
2023-05-07T07:01:09.720Z,100313.88
2023-05-07T07:06:10.902Z,100299.75
2023-05-07T07:11:12.124Z,100313.69
2023-05-07T07:16:13.603Z,100315.16
2023-05-07T07:21:14.993Z,100312.16
2023-05-07T07:26:16.141Z,100310.31
2023-05-07T07:31:17.410Z,100322.84
2023-05-07T07:36:18.669Z,100321.28
2023-05-07T07:41:19.877Z,100322.78
2023-05-07T07:46:21.098Z,100323.63
2023-05-07T07:51:22.288Z,100322.38
2023-05-07T07:56:23.469Z,100324.13
2023-05-07T08:01:24.713Z,100338.06
2023-05-07T08:06:29.163Z,100339.53
2023-05-07T08:11:30.414Z,100338.47
2023-05-07T08:16:31.628Z,100348.94
2023-05-07T08:21:34.563Z,100339.28
2023-05-07T08:26:36.915Z,100332.13
2023-05-07T08:31:39.670Z,100338.06
2023-05-07T08:36:42.748Z,100337.84
2023-05-07T08:41:43.950Z,100339.47
2023-05-07T08:46:47.725Z,100344.25
2023-05-07T08:51:49.044Z,100343.94
2023-05-07T08:56:51.121Z,100336.41
2023-05-07T09:01:52.469Z,100341.56
2023-05-07T09:06:53.695Z,100342.94
2023-05-07T09:11:54.907Z,100339.25
2023-05-07T09:16:56.116Z,100338.34
2023-05-07T09:21:57.279Z,100327.06
2023-05-07T09:26:58.554Z,100332.63
2023-05-07T09:31:59.819Z,100334.25
2023-05-07T09:37:01.096Z,100332.78
2023-05-07T09:42:02.299Z,100320.25
2023-05-07T09:47:03.468Z,100328.56
2023-05-07T09:52:04.809Z,100327.97
2023-05-07T09:57:06.133Z,100328.91
2023-05-07T10:02:07.390Z,100322.81
2023-05-07T10:07:08.656Z,100325.53
2023-05-07T10:12:09.872Z,100325.44
2023-05-07T10:17:12.845Z,100319.75
2023-05-07T10:22:14.058Z,100320.78
2023-05-07T10:27:15.409Z,100318.00
2023-05-07T10:32:16.660Z,100313.69
2023-05-07T10:37:17.830Z,100322.19
2023-05-07T10:42:19.073Z,100323.34
2023-05-07T10:47:20.367Z,100322.16
2023-05-07T10:52:21.655Z,100322.72
2023-05-07T10:57:23.052Z,100321.19
2023-05-07T11:02:24.285Z,100305.63
2023-05-07T11:07:25.601Z,100313.41
2023-05-07T11:12:26.805Z,100309.59
2023-05-07T11:17:31.026Z,100312.28
2023-05-07T11:22:32.554Z,100306.91
2023-05-07T11:27:33.753Z,100305.38
2023-05-07T11:32:34.968Z,100302.19
2023-05-07T11:37:36.341Z,100298.81
2023-05-07T11:42:38.523Z,100301.97
2023-05-07T11:47:39.850Z,100298.91
2023-05-07T11:52:41.136Z,100294.22
2023-05-07T11:57:42.923Z,100299.53
2023-05-07T12:02:44.227Z,100294.16
2023-05-07T12:07:45.435Z,100295.25
2023-05-07T12:12:46.621Z,100296.53
2023-05-07T12:17:47.907Z,100297.34
2023-05-07T12:22:49.183Z,100295.03
2023-05-07T12:27:50.662Z,100298.09
2023-05-07T12:32:51.954Z,100296.53
2023-05-07T12:37:53.160Z,100295.81
2023-05-07T12:42:55.753Z,100307.44
2023-05-07T12:47:57.152Z,100296.72
2023-05-07T12:52:58.447Z,100303.22
2023-05-07T12:57:59.650Z,100301.28
2023-05-07T13:03:00.975Z,100304.25
2023-05-07T13:08:02.224Z,100311.97
2023-05-07T13:13:03.506Z,100306.94
2023-05-07T13:18:04.745Z,100306.19
2023-05-07T13:23:06.015Z,100308.03
2023-05-07T13:28:11.144Z,100307.97
2023-05-07T13:33:12.585Z,100305.97
2023-05-07T13:38:13.878Z,100304.31
2023-05-07T13:43:15.454Z,100312.97
2023-05-07T13:48:16.709Z,100320.56
2023-05-07T13:53:19.142Z,100316.88
2023-05-07T13:58:20.389Z,100308.50
2023-05-07T14:03:21.699Z,100305.91
2023-05-07T14:08:22.922Z,100306.97
2023-05-07T14:13:24.259Z,100307.94
2023-05-07T14:18:25.627Z,100317.66
2023-05-07T14:23:27.550Z,100319.00
2023-05-07T14:28:28.868Z,100329.22
2023-05-07T14:33:30.065Z,100339.09
2023-05-07T14:38:33.649Z,100330.47
2023-05-07T14:43:34.861Z,100347.59
2023-05-07T14:48:36.245Z,100360.69
2023-05-07T14:53:37.421Z,100370.16
2023-05-07T14:58:38.972Z,100380.44
2023-05-07T15:03:40.383Z,100371.03
2023-05-07T15:08:41.619Z,100376.69
2023-05-07T15:13:42.763Z,100406.16
2023-05-07T15:18:43.917Z,100410.88
2023-05-07T15:23:45.477Z,100405.94
2023-05-07T15:28:46.865Z,100409.63
2023-05-07T15:33:48.502Z,100408.00
2023-05-07T15:38:49.629Z,100407.25
2023-05-07T15:43:50.846Z,100396.97
2023-05-07T15:48:52.141Z,100394.69
2023-05-07T15:53:53.858Z,100386.72
2023-05-07T15:58:55.006Z,100382.38
2023-05-07T16:03:56.256Z,100396.06
2023-05-07T16:08:57.474Z,100390.84
2023-05-07T16:14:00.858Z,100394.53
2023-05-07T16:19:02.168Z,100396.44
2023-05-07T16:24:03.412Z,100394.22
2023-05-07T16:29:04.610Z,100388.09
2023-05-07T16:34:05.826Z,100388.69
2023-05-07T16:39:06.958Z,100388.69
2023-05-07T16:44:09.382Z,100390.25
2023-05-07T16:49:11.263Z,100394.13
2023-05-07T16:54:12.702Z,100394.22
2023-05-07T16:59:13.923Z,100404.09
2023-05-07T17:04:15.161Z,100407.53
2023-05-07T17:09:16.380Z,100398.78
2023-05-07T17:14:17.554Z,100418.09
2023-05-07T17:19:18.734Z,100427.84
2023-05-07T17:24:19.864Z,100437.81
2023-05-07T17:29:21.153Z,100451.97
2023-05-07T17:34:22.353Z,100453.31
2023-05-07T17:39:23.674Z,100460.00
2023-05-07T17:44:24.912Z,100459.59
2023-05-07T17:49:26.089Z,100471.44
2023-05-07T17:54:27.890Z,100482.88
2023-05-07T17:59:29.311Z,100488.22
2023-05-07T18:04:30.558Z,100487.34
2023-05-07T18:09:31.794Z,100486.25
2023-05-07T18:14:33.009Z,100494.44
2023-05-07T18:19:34.169Z,100495.75
2023-05-07T18:24:35.458Z,100495.53
2023-05-07T18:29:36.606Z,100502.50
2023-05-07T18:34:37.761Z,100509.81
2023-05-07T18:39:38.937Z,100519.91
2023-05-07T18:44:40.270Z,100528.75
2023-05-07T18:49:41.482Z,100531.63
2023-05-07T18:54:43.280Z,100541.22
2023-05-07T18:59:44.521Z,100542.44
2023-05-07T19:04:45.724Z,100544.84
2023-05-07T19:10:01.172Z,100545.72
2023-05-07T19:15:05.860Z,100557.53
2023-05-07T19:25:13.831Z,100561.22
2023-05-07T19:30:15.431Z,100574.22
2023-05-07T19:35:16.632Z,100582.69
2023-05-07T19:40:17.944Z,100588.22
2023-05-07T19:45:19.112Z,100592.50
2023-05-07T19:50:20.322Z,100595.97
2023-05-07T19:55:21.579Z,100609.94
2023-05-07T20:00:26.391Z,100603.88
2023-05-07T20:05:28.162Z,100620.56
2023-05-07T20:10:29.401Z,100615.75
2023-05-07T20:15:30.658Z,100628.44
2023-05-07T20:20:31.908Z,100630.78
2023-05-07T20:25:33.090Z,100633.31
2023-05-07T20:30:34.358Z,100640.69
2023-05-07T20:35:35.580Z,100642.75
2023-05-07T20:40:37.775Z,100639.97
2023-05-07T20:45:39.450Z,100658.03
2023-05-07T20:50:41.055Z,100647.91
2023-05-07T20:55:42.257Z,100649.31
2023-05-07T21:00:43.459Z,100646.84
2023-05-07T21:05:44.751Z,100647.03
2023-05-07T21:10:46.030Z,100650.75
2023-05-07T21:15:47.419Z,100653.72
2023-05-07T21:20:48.646Z,100656.69
2023-05-07T21:25:51.654Z,100661.06
2023-05-07T21:30:52.884Z,100663.88
2023-05-07T21:35:54.289Z,100665.59
2023-05-07T21:40:55.640Z,100665.44
2023-05-07T21:45:57.803Z,100669.53
2023-05-07T21:50:59.017Z,100666.72
2023-05-07T21:56:00.306Z,100658.63
2023-05-07T22:01:01.836Z,100656.91
2023-05-07T22:06:03.090Z,100665.34
2023-05-07T22:11:04.313Z,100665.66
2023-05-07T22:16:05.597Z,100663.31
2023-05-07T22:21:06.881Z,100661.59
2023-05-07T22:26:08.145Z,100661.44
2023-05-07T22:31:09.376Z,100664.25
2023-05-07T22:36:10.551Z,100661.78
2023-05-07T22:41:11.695Z,100659.75
2023-05-07T22:46:12.859Z,100658.38
2023-05-07T22:51:14.525Z,100656.03
2023-05-07T22:56:15.775Z,100658.03
2023-05-07T23:01:17.010Z,100650.41
2023-05-07T23:06:18.341Z,100655.09
2023-05-07T23:11:19.502Z,100648.09
2023-05-07T23:16:20.704Z,100655.38
2023-05-07T23:21:21.902Z,100652.44
2023-05-07T23:26:23.548Z,100654.91
2023-05-07T23:31:24.793Z,100645.38
2023-05-07T23:36:26.088Z,100650.06
2023-05-07T23:41:27.284Z,100660.50
2023-05-07T23:46:28.518Z,100656.59
2023-05-07T23:51:29.755Z,100654.25
2023-05-07T23:56:30.982Z,100660.66
